Time;durP1;ratioP1;P1;durP2;ratioP2;P2;SDS_P1;SDS_P2;PMS_P1;PMS_P2;Temp;Humidity;BMP_temperature;BMP_pressure;BME280_temperature;BME280_humidity;BME280_pressure;Samples;Min_cycle;Max_cycle;Signal;HPM_P1;HPM_P2
2022/09/25 00:01:25;;;;;;;8.00;3.30;;;;;6.80;97730.40;;;;111083;1247;41145;-63
2022/09/25 00:03:53;;;;;;;8.20;4.00;;;;;6.80;97724.20;;;;111036;1247;41165;-62
2022/09/25 00:06:24;;;;;;;13.40;5.50;;;;;6.80;97719.80;;;;111111;1248;41144;-63
2022/09/25 00:08:52;;;;;;;10.80;5.00;;;;;6.72;97715.20;;;;111092;1248;41146;-63
2022/09/25 00:11:31;;;;;;;9.30;4.50;;;;;6.70;97716.60;;;;111051;1248;41139;-62
2022/09/25 00:14:01;;;;;;;8.90;3.90;;;;;6.70;97717.20;;;;111052;1247;41264;-62
2022/09/25 00:16:31;;;;;;;8.70;4.10;;;;;6.62;97714.40;;;;111204;1247;41293;-62
2022/09/25 00:21:50;;;;;;;8.00;3.40;;;;;6.60;97712.40;;;;111112;1248;41722;-62
2022/09/25 00:24:19;;;;;;;7.00;2.80;;;;;6.60;97706.40;;;;111215;1248;40749;-62
2022/09/25 00:26:47;;;;;;;7.60;3.30;;;;;6.56;97703.20;;;;111121;1247;41640;-63
2022/09/25 00:29:18;;;;;;;8.50;3.90;;;;;6.50;97701.60;;;;111082;1249;41144;-62
2022/09/25 00:31:46;;;;;;;7.20;3.40;;;;;6.50;97702.80;;;;111059;1247;41600;-62
2022/09/25 00:34:15;;;;;;;7.70;3.70;;;;;6.50;97702.20;;;;111056;1248;41340;-62
2022/09/25 00:36:43;;;;;;;8.10;4.00;;;;;6.46;97697.80;;;;111070;1247;41127;-63
2022/09/25 00:39:12;;;;;;;9.30;4.70;;;;;6.40;97691.40;;;;111116;1247;41153;-62
2022/09/25 00:41:41;;;;;;;7.60;3.30;;;;;6.40;97690.00;;;;111181;1246;41134;-63
2022/09/25 00:44:46;;;;;;;8.70;4.00;;;;;6.40;97687.40;;;;110995;1247;41169;-65
2022/09/25 00:47:19;;;;;;;8.30;3.60;;;;;6.40;97687.40;;;;111157;1248;41256;-62
2022/09/25 00:49:47;;;;;;;7.90;3.50;;;;;6.40;97690.00;;;;111191;1247;41185;-62
2022/09/25 00:52:16;;;;;;;8.70;3.90;;;;;6.30;97683.00;;;;111057;1248;41564;-63
2022/09/25 00:54:51;;;;;;;8.80;3.80;;;;;6.30;97682.60;;;;111098;1248;42554;-63
2022/09/25 00:57:21;;;;;;;8.40;3.50;;;;;6.30;97678.80;;;;111123;1247;41139;-63
2022/09/25 00:59:52;;;;;;;8.60;3.50;;;;;6.30;97675.20;;;;111151;1247;42071;-63
2022/09/25 01:02:33;;;;;;;8.60;3.70;;;;;6.30;97675.20;;;;111093;1247;41266;-63
2022/09/25 01:05:07;;;;;;;;;;;;;6.30;97672.00;;;;110774;1247;41170;-63
2022/09/25 01:07:39;;;;;;;8.80;4.50;;;;;6.20;97671.60;;;;111125;1247;41135;-60
2022/09/25 01:10:09;;;;;;;9.40;4.50;;;;;6.10;97677.60;;;;111127;1247;42252;-63
2022/09/25 01:12:42;;;;;;;8.20;4.20;;;;;6.06;97672.40;;;;111107;1249;41411;-63
2022/09/25 01:15:12;;;;;;;8.10;3.50;;;;;6.00;97672.20;;;;111064;1247;41156;-63
2022/09/25 01:17:55;;;;;;;9.40;3.40;;;;;6.00;97673.40;;;;110993;1249;42256;-63
2022/09/25 01:20:45;;;;;;;8.30;3.60;;;;;6.00;97672.00;;;;111127;1248;42387;-63
2022/09/25 01:23:48;;;;;;;9.20;4.30;;;;;6.00;97663.40;;;;111127;1247;41142;-62
2022/09/25 01:26:28;;;;;;;8.50;4.10;;;;;6.00;97664.80;;;;111108;1248;41260;-62
2022/09/25 01:29:18;;;;;;;8.00;3.60;;;;;6.00;97660.60;;;;111068;1247;42309;-63
2022/09/25 01:31:52;;;;;;;7.40;3.30;;;;;6.00;97654.00;;;;111036;1248;41136;-63
2022/09/25 01:34:41;;;;;;;8.70;3.90;;;;;6.00;97652.00;;;;111117;1247;41165;-63
2022/09/25 01:37:25;;;;;;;6.70;3.00;;;;;6.10;97646.80;;;;111160;1246;41347;-63
2022/09/25 01:40:28;;;;;;;7.20;3.00;;;;;6.16;97642.60;;;;111094;1248;41148;-62
2022/09/25 01:43:11;;;;;;;7.70;3.10;;;;;6.20;97643.40;;;;111139;1248;41485;-61
2022/09/25 01:45:47;;;;;;;7.80;3.50;;;;;6.20;97648.40;;;;110841;1248;41158;-61
2022/09/25 01:48:19;;;;;;;7.90;3.70;;;;;6.20;97644.40;;;;111072;1248;42372;-61
2022/09/25 01:50:52;;;;;;;8.90;4.10;;;;;6.30;97648.20;;;;110996;1248;41260;-63
2022/09/25 01:53:26;;;;;;;7.40;3.40;;;;;6.30;97650.40;;;;110917;1249;41144;-61
2022/09/25 01:56:00;;;;;;;7.60;3.60;;;;;6.38;97649.20;;;;111030;1248;42470;-62
2022/09/25 01:58:31;;;;;;;7.10;3.10;;;;;6.40;97650.40;;;;110733;1249;41498;-63
2022/09/25 02:01:05;;;;;;;10.50;3.70;;;;;6.42;97646.40;;;;111042;1247;41155;-62
2022/09/25 02:03:57;;;;;;;9.10;4.00;;;;;6.50;97651.40;;;;110930;1247;41144;-61
2022/09/25 02:06:26;;;;;;;12.20;6.00;;;;;6.50;97655.60;;;;111177;1247;41252;-63
2022/09/25 02:09:08;;;;;;;12.50;6.50;;;;;6.40;97656.00;;;;111169;1247;41640;-62
2022/09/25 02:11:46;;;;;;;11.70;5.70;;;;;6.30;97660.40;;;;111105;1247;41151;-62
2022/09/25 02:14:18;;;;;;;10.90;5.00;;;;;6.30;97659.60;;;;111160;1247;41226;-61
2022/09/25 02:16:52;;;;;;;10.00;4.50;;;;;6.30;97665.40;;;;111088;1247;41614;-62
2022/09/25 02:22:16;;;;;;;9.80;4.80;;;;;6.30;97653.00;;;;111096;1247;42484;-62
2022/09/25 02:24:57;;;;;;;9.10;4.10;;;;;6.30;97654.60;;;;111135;1248;41533;-62
2022/09/25 02:27:26;;;;;;;;;;;;;6.40;97659.60;;;;111148;1248;41566;-62
2022/09/25 02:29:57;;;;;;;8.20;3.60;;;;;6.40;97657.40;;;;111027;1248;41505;-62
2022/09/25 02:32:29;;;;;;;6.60;3.00;;;;;6.50;97660.80;;;;111130;1247;41600;-62
2022/09/25 02:34:58;;;;;;;7.90;3.60;;;;;6.50;97661.20;;;;111080;1247;41312;-63
2022/09/25 02:37:27;;;;;;;10.90;4.90;;;;;6.60;97662.60;;;;111090;1247;41261;-62
2022/09/25 02:39:59;;;;;;;10.40;4.90;;;;;6.70;97663.80;;;;111185;1246;41169;-63
2022/09/25 02:42:55;;;;;;;10.10;4.30;;;;;6.70;97667.60;;;;111075;1247;41126;-62
2022/09/25 02:45:40;;;;;;;8.80;4.20;;;;;6.70;97662.80;;;;111136;1247;42464;-61
2022/09/25 02:48:14;;;;;;;8.30;3.80;;;;;6.72;97662.00;;;;110758;1249;41162;-61
2022/09/25 02:51:05;;;;;;;7.80;3.50;;;;;6.80;97670.20;;;;111083;1247;41208;-61
2022/09/25 02:54:01;;;;;;;7.40;3.30;;;;;6.80;97666.40;;;;111092;1247;41621;-62
2022/09/25 02:56:46;;;;;;;8.30;3.60;;;;;6.88;97666.40;;;;110885;1247;41211;-63
2022/09/25 02:59:19;;;;;;;8.90;4.20;;;;;6.90;97666.40;;;;110850;1250;41137;-63
2022/09/25 03:01:49;;;;;;;9.10;4.20;;;;;6.90;97671.00;;;;111005;1248;41149;-63
2022/09/25 03:04:19;;;;;;;9.70;4.70;;;;;6.92;97660.40;;;;110834;1250;41282;-63
2022/09/25 03:06:47;;;;;;;10.40;5.30;;;;;6.82;97654.00;;;;111007;1249;41163;-63
2022/09/25 03:09:19;;;;;;;11.90;6.10;;;;;6.80;97651.80;;;;110761;1249;41263;-62
2022/09/25 03:11:49;;;;;;;11.90;5.50;;;;;6.74;97643.00;;;;111095;1247;41185;-63
2022/09/25 03:14:19;;;;;;;9.00;4.30;;;;;6.70;97642.60;;;;111039;1248;41957;-63
2022/09/25 03:16:56;;;;;;;10.60;4.70;;;;;6.70;97639.40;;;;110962;1249;41267;-63
2022/09/25 03:19:27;;;;;;;9.10;4.20;;;;;6.80;97637.20;;;;110665;1249;41149;-62
2022/09/25 03:21:56;;;;;;;8.80;4.00;;;;;6.80;97639.80;;;;111136;1248;41147;-62
2022/09/25 03:24:26;;;;;;;7.40;3.40;;;;;6.88;97639.00;;;;110968;1249;41134;-62
2022/09/25 03:26:54;;;;;;;7.00;2.90;;;;;6.90;97633.20;;;;110810;1250;41125;-62
2022/09/25 03:29:23;;;;;;;7.50;2.80;;;;;6.98;97639.60;;;;111002;1249;41212;-62
2022/09/25 03:31:52;;;;;;;7.40;3.60;;;;;7.00;97646.60;;;;111032;1249;41709;-61
2022/09/25 03:34:21;;;;;;;6.80;3.00;;;;;7.00;97652.60;;;;110832;1248;42379;-62
2022/09/25 03:36:50;;;;;;;8.00;3.10;;;;;7.10;97651.40;;;;110751;1248;41144;-62
2022/09/25 03:39:18;;;;;;;7.50;3.20;;;;;7.10;97655.80;;;;110883;1248;41158;-63
2022/09/25 03:41:48;;;;;;;8.70;3.60;;;;;7.12;97651.40;;;;111162;1247;42131;-62
2022/09/25 03:44:17;;;;;;;7.70;3.20;;;;;7.20;97650.40;;;;111111;1247;41756;-62
2022/09/25 03:46:45;;;;;;;7.70;3.20;;;;;7.20;97648.40;;;;111128;1247;41705;-62
2022/09/25 03:49:13;;;;;;;7.70;3.20;;;;;7.24;97646.00;;;;111081;1247;41159;-62
2022/09/25 03:51:41;;;;;;;9.30;4.50;;;;;7.30;97641.60;;;;111064;1248;42373;-62
2022/09/25 03:54:09;;;;;;;12.50;6.10;;;;;7.30;97640.60;;;;111038;1247;42178;-62
2022/09/25 03:56:37;;;;;;;11.00;5.90;;;;;7.20;97642.20;;;;111122;1248;41139;-63
2022/09/25 03:59:05;;;;;;;9.90;4.90;;;;;7.10;97633.60;;;;111332;1246;42535;-62
2022/09/25 04:01:35;;;;;;;8.60;4.30;;;;;7.08;97628.40;;;;111343;1247;41456;-62
2022/09/25 04:04:03;;;;;;;9.30;4.40;;;;;7.04;97624.00;;;;111177;1247;41153;-63
2022/09/25 04:06:31;;;;;;;8.50;4.10;;;;;7.10;97622.40;;;;110910;1249;41159;-62
2022/09/25 04:08:59;;;;;;;8.00;4.00;;;;;7.18;97623.80;;;;111167;1247;41147;-63
2022/09/25 04:11:27;;;;;;;8.20;3.20;;;;;7.20;97624.00;;;;111155;1248;41132;-63
2022/09/25 04:13:56;;;;;;;7.80;3.80;;;;;7.28;97618.80;;;;111204;1247;42191;-61
2022/09/25 04:16:23;;;;;;;8.10;3.70;;;;;7.30;97620.20;;;;111121;1247;42408;-62
2022/09/25 04:18:51;;;;;;;6.90;2.90;;;;;7.40;97635.40;;;;111295;1247;41618;-62
2022/09/25 04:21:21;;;;;;;7.40;3.20;;;;;7.40;97635.80;;;;111211;1248;42177;-63
2022/09/25 04:26:35;;;;;;;9.60;3.60;;;;;7.50;97639.00;;;;111109;1247;42380;-62
2022/09/25 04:29:04;;;;;;;9.30;4.50;;;;;7.50;97632.80;;;;111260;1247;41174;-62
2022/09/25 04:31:32;;;;;;;9.90;4.50;;;;;7.50;97640.20;;;;111280;1247;41134;-62
2022/09/25 04:34:00;;;;;;;8.90;4.60;;;;;7.50;97642.20;;;;111181;1247;41139;-62
2022/09/25 04:36:29;;;;;;;9.40;4.20;;;;;7.50;97641.60;;;;111303;1247;41142;-62
2022/09/25 04:38:56;;;;;;;12.00;4.10;;;;;7.50;97640.60;;;;111196;1245;41674;-62
2022/09/25 04:41:24;;;;;;;11.40;4.70;;;;;7.42;97636.20;;;;111201;1247;41260;-62
2022/09/25 04:43:52;;;;;;;10.10;4.30;;;;;7.42;97633.80;;;;110931;1247;41149;-62
2022/09/25 04:46:19;;;;;;;9.30;3.70;;;;;7.40;97625.80;;;;111249;1247;41637;-62
2022/09/25 04:48:49;;;;;;;8.90;3.50;;;;;7.50;97626.80;;;;111137;1247;41362;-62
2022/09/25 04:51:17;;;;;;;7.80;3.40;;;;;7.54;97629.60;;;;111112;1248;41182;-63
2022/09/25 04:53:45;;;;;;;8.60;3.60;;;;;7.60;97627.60;;;;111137;1248;41244;-61
2022/09/25 04:56:13;;;;;;;7.60;3.20;;;;;7.70;97633.80;;;;111200;1247;41237;-63
2022/09/25 04:58:48;;;;;;;7.90;3.40;;;;;7.80;97623.60;;;;111181;1249;41180;-62
2022/09/25 05:01:18;;;;;;;7.70;3.10;;;;;7.82;97614.40;;;;110979;1248;41418;-61
2022/09/25 05:03:49;;;;;;;6.80;2.90;;;;;7.90;97618.00;;;;111187;1247;41138;-62
2022/09/25 05:06:18;;;;;;;8.60;4.30;;;;;8.00;97614.80;;;;110981;1248;41261;-64
2022/09/25 05:08:49;;;;;;;9.60;4.70;;;;;8.02;97615.00;;;;110823;1250;41604;-63
2022/09/25 05:11:16;;;;;;;;;;;;;8.10;97614.40;;;;110859;1248;41262;-61
2022/09/25 05:13:45;;;;;;;10.30;4.60;;;;;8.10;97618.60;;;;110887;1249;41524;-62
2022/09/25 05:16:13;;;;;;;8.60;4.10;;;;;8.20;97628.60;;;;111173;1248;41256;-63
2022/09/25 05:18:41;;;;;;;7.80;3.80;;;;;8.30;97630.80;;;;110783;1247;41253;-62
2022/09/25 05:21:08;;;;;;;9.70;4.70;;;;;8.34;97632.60;;;;110800;1249;41300;-62
2022/09/25 05:23:35;;;;;;;12.90;5.20;;;;;8.40;97637.80;;;;111016;1247;41249;-62
2022/09/25 05:26:03;;;;;;;9.50;5.00;;;;;8.50;97649.00;;;;111073;1247;41590;-63
2022/09/25 05:28:31;;;;;;;11.40;5.10;;;;;8.50;97652.40;;;;111078;1248;41124;-63
2022/09/25 05:31:02;;;;;;;10.80;5.30;;;;;8.60;97650.20;;;;111122;1247;42981;-63
2022/09/25 05:33:33;;;;;;;10.30;5.50;;;;;8.64;97649.00;;;;111192;1248;41260;-60
2022/09/25 05:36:02;;;;;;;10.30;5.00;;;;;8.70;97650.60;;;;111100;1247;41922;-62
2022/09/25 05:38:31;;;;;;;9.50;4.70;;;;;8.80;97647.20;;;;110878;1248;247509;-62
2022/09/25 05:41:05;;;;;;;9.40;4.10;;;;;8.90;97646.40;;;;111085;1247;41260;-63
2022/09/25 05:43:39;;;;;;;10.80;5.20;;;;;9.00;97640.80;;;;111139;1247;41586;-62
2022/09/25 05:46:06;;;;;;;11.60;5.20;;;;;9.00;97638.60;;;;111052;1248;41266;-63
2022/09/25 05:48:33;;;;;;;9.20;5.00;;;;;9.12;97636.80;;;;111045;1247;41188;-62
2022/09/25 05:51:01;;;;;;;10.30;5.00;;;;;9.20;97632.00;;;;111153;1247;41694;-62
2022/09/25 05:53:32;;;;;;;10.70;5.00;;;;;9.30;97628.20;;;;111105;1247;41252;-62
2022/09/25 05:56:01;;;;;;;10.50;5.00;;;;;9.44;97624.20;;;;111053;1247;41172;-61
2022/09/25 05:58:30;;;;;;;11.50;6.10;;;;;9.64;97621.60;;;;111291;1247;42960;-62
2022/09/25 06:01:02;;;;;;;12.50;5.70;;;;;9.84;97619.00;;;;111083;1248;41375;-64
2022/09/25 06:03:29;;;;;;;11.00;5.00;;;;;10.04;97619.40;;;;111107;1248;41716;-63
2022/09/25 06:06:00;;;;;;;10.40;4.90;;;;;10.36;97618.40;;;;111129;1248;41151;-62
2022/09/25 06:08:29;;;;;;;9.00;4.60;;;;;10.74;97616.00;;;;111068;1248;41166;-62
2022/09/25 06:10:59;;;;;;;10.00;4.50;;;;;11.18;97609.00;;;;111072;1247;41262;-62
2022/09/25 06:13:30;;;;;;;8.90;4.60;;;;;11.74;97613.00;;;;111006;1248;42074;-62
2022/09/25 06:15:58;;;;;;;12.10;4.90;;;;;12.40;97608.40;;;;111029;1248;42385;-62
2022/09/25 06:18:25;;;;;;;9.40;4.50;;;;;12.90;97611.40;;;;111007;1248;41172;-62
2022/09/25 06:20:59;;;;;;;9.80;4.70;;;;;13.20;97617.20;;;;111010;1248;41305;-62
2022/09/25 06:23:26;;;;;;;8.60;3.90;;;;;13.50;97607.80;;;;111029;1247;42528;-62
2022/09/25 06:25:54;;;;;;;7.50;3.40;;;;;13.70;97608.20;;;;111003;1248;41182;-62
2022/09/25 06:28:21;;;;;;;9.10;4.20;;;;;13.90;97602.80;;;;110976;1247;41716;-62
2022/09/25 06:30:48;;;;;;;8.80;3.70;;;;;14.10;97600.00;;;;110997;1248;41253;-62
2022/09/25 06:33:16;;;;;;;7.80;3.30;;;;;14.32;97609.20;;;;111010;1248;41269;-64
2022/09/25 06:35:47;;;;;;;8.20;3.80;;;;;14.58;97606.60;;;;111052;1248;41939;-64
2022/09/25 06:38:15;;;;;;;8.40;3.60;;;;;14.62;97607.20;;;;111004;1248;41467;-62
2022/09/25 06:40:43;;;;;;;9.70;3.70;;;;;14.64;97615.40;;;;111000;1247;41134;-62
2022/09/25 06:43:14;;;;;;;7.30;3.40;;;;;14.60;97615.80;;;;111008;1248;41138;-62
2022/09/25 06:45:42;;;;;;;7.70;3.30;;;;;14.66;97596.00;;;;111065;1249;41288;-62
2022/09/25 06:48:12;;;;;;;7.30;3.00;;;;;15.54;97599.60;;;;111200;1247;41263;-62
2022/09/25 06:50:45;;;;;;;7.50;3.40;;;;;16.66;97602.40;;;;111318;1247;41158;-62
2022/09/25 06:53:13;;;;;;;8.30;3.20;;;;;17.76;97597.80;;;;111146;1249;41130;-62
2022/09/25 06:55:40;;;;;;;8.20;2.70;;;;;18.64;97591.80;;;;111120;1247;41153;-62
2022/09/25 06:58:11;;;;;;;6.80;2.70;;;;;19.28;97591.00;;;;111142;1246;41127;-62
2022/09/25 07:00:38;;;;;;;6.50;2.80;;;;;19.50;97585.00;;;;111129;1247;41736;-61
2022/09/25 07:05:52;;;;;;;8.80;2.70;;;;;20.32;97581.00;;;;111125;1248;41726;-61
2022/09/25 07:08:22;;;;;;;6.20;2.70;;;;;20.72;97579.00;;;;111090;1247;41247;-62
2022/09/25 07:10:50;;;;;;;10.00;2.40;;;;;20.86;97570.60;;;;110875;1249;41247;-61
2022/09/25 07:13:23;;;;;;;6.10;2.20;;;;;21.00;97575.20;;;;111000;1248;41156;-61
2022/09/25 07:16:03;;;;;;;5.50;2.10;;;;;21.62;97578.60;;;;111136;1247;41657;-61
2022/09/25 07:18:30;;;;;;;4.10;1.90;;;;;22.14;97576.60;;;;110769;1249;41904;-61
2022/09/25 07:21:07;;;;;;;6.20;2.20;;;;;22.16;97569.60;;;;111042;1247;41255;-62
2022/09/25 07:23:35;;;;;;;6.50;2.70;;;;;22.12;97567.20;;;;110996;1247;41265;-62
2022/09/25 07:26:10;;;;;;;3.60;1.80;;;;;21.68;97566.40;;;;111100;1248;41331;-62
2022/09/25 07:28:39;;;;;;;6.20;2.30;;;;;22.00;97572.80;;;;111200;1247;42106;-62
2022/09/25 07:31:20;;;;;;;6.00;2.30;;;;;22.38;97562.00;;;;111115;1247;41151;-62
2022/09/25 07:33:48;;;;;;;4.40;2.00;;;;;22.56;97564.60;;;;111139;1249;41599;-64
2022/09/25 07:36:17;;;;;;;4.20;1.90;;;;;22.84;97556.60;;;;111172;1247;41601;-63
2022/09/25 07:38:49;;;;;;;5.80;2.10;;;;;23.46;97550.40;;;;111094;1248;41140;-63
2022/09/25 07:41:17;;;;;;;4.80;1.90;;;;;23.40;97550.40;;;;111083;1248;41162;-62
2022/09/25 07:43:45;;;;;;;6.10;2.10;;;;;24.20;97552.20;;;;111115;1247;42453;-62
2022/09/25 07:46:12;;;;;;;3.60;1.80;;;;;24.82;97551.60;;;;111041;1248;41165;-61
2022/09/25 07:48:39;;;;;;;4.70;2.10;;;;;25.20;97549.00;;;;111064;1249;41187;-61
2022/09/25 07:51:09;;;;;;;4.60;1.90;;;;;24.86;97537.80;;;;111017;1248;41717;-63
2022/09/25 07:53:38;;;;;;;4.70;1.90;;;;;25.48;97536.00;;;;111115;1248;41720;-61
2022/09/25 07:56:05;;;;;;;4.10;1.90;;;;;26.08;97542.00;;;;111087;1247;41586;-62
2022/09/25 07:58:34;;;;;;;3.70;1.80;;;;;25.56;97543.60;;;;111099;1247;41126;-62
2022/09/25 08:01:04;;;;;;;6.50;2.10;;;;;25.10;97542.40;;;;111040;1248;41263;-62
2022/09/25 08:03:32;;;;;;;3.90;1.70;;;;;25.00;97540.80;;;;111072;1247;41552;-62
2022/09/25 08:06:01;;;;;;;4.90;2.10;;;;;24.88;97546.20;;;;111110;1247;41635;-62
2022/09/25 08:08:29;;;;;;;5.80;1.90;;;;;24.52;97549.40;;;;111055;1247;41149;-62
2022/09/25 08:11:07;;;;;;;4.00;1.80;;;;;24.06;97561.80;;;;111103;1247;41140;-62
2022/09/25 08:13:37;;;;;;;4.90;1.80;;;;;24.00;97562.00;;;;110991;1249;41950;-60
2022/09/25 08:16:10;;;;;;;4.20;1.80;;;;;23.96;97562.20;;;;110977;1248;42416;-62
2022/09/25 08:18:42;;;;;;;4.20;1.70;;;;;24.76;97562.00;;;;111024;1248;42635;-62
2022/09/25 08:21:12;;;;;;;4.60;1.90;;;;;25.00;97562.60;;;;110945;1249;41153;-61
2022/09/25 08:23:41;;;;;;;4.70;1.70;;;;;24.42;97554.60;;;;111286;1247;41249;-62
2022/09/25 08:26:16;;;;;;;4.50;1.90;;;;;24.42;97542.40;;;;110989;1249;41255;-61
2022/09/25 08:28:44;;;;;;;5.00;2.10;;;;;25.18;97544.40;;;;111022;1248;41155;-62
2022/09/25 08:31:13;;;;;;;4.60;1.70;;;;;25.52;97542.20;;;;110851;1249;41456;-62
2022/09/25 08:33:49;;;;;;;4.00;1.80;;;;;25.62;97538.00;;;;111008;1248;41144;-62
2022/09/25 08:36:17;;;;;;;3.60;1.80;;;;;25.32;97541.40;;;;111180;1247;41757;-62
2022/09/25 08:38:45;;;;;;;4.40;2.00;;;;;25.80;97545.00;;;;111394;1247;42570;-62
2022/09/25 08:41:23;;;;;;;4.50;1.80;;;;;26.40;97539.80;;;;111207;1247;41654;-62
2022/09/25 08:43:58;;;;;;;3.30;1.60;;;;;27.12;97536.80;;;;111154;1248;41263;-62
2022/09/25 08:50:06;;;;;;;5.10;1.90;;;;;28.70;97524.80;;;;110989;1247;41786;-62
2022/09/25 08:52:34;;;;;;;4.50;1.80;;;;;29.28;97522.40;;;;111345;1247;41149;-62
2022/09/25 08:55:01;;;;;;;4.30;1.80;;;;;29.30;97511.40;;;;111314;1247;41132;-62
2022/09/25 08:57:34;;;;;;;3.60;1.60;;;;;29.34;97505.80;;;;110806;1249;41126;-62
2022/09/25 09:00:08;;;;;;;6.20;1.90;;;;;29.20;97499.00;;;;111149;1247;41204;-63
2022/09/25 09:02:47;;;;;;;4.00;1.80;;;;;29.18;97495.20;;;;111081;1248;41607;-63
2022/09/25 09:05:25;;;;;;;3.10;1.70;;;;;29.30;97486.00;;;;111331;1247;41708;-62
2022/09/25 09:07:57;;;;;;;3.90;1.80;;;;;28.84;97474.00;;;;111182;1247;41530;-62
2022/09/25 09:10:24;;;;;;;5.20;1.90;;;;;27.80;97476.60;;;;111271;1247;41253;-62
2022/09/25 09:12:58;;;;;;;4.60;2.00;;;;;27.38;97486.20;;;;111123;1247;41656;-61
2022/09/25 09:15:44;;;;;;;4.40;1.80;;;;;27.80;97478.80;;;;111148;1247;41757;-61
2022/09/25 09:18:23;;;;;;;3.80;1.90;;;;;28.36;97472.80;;;;111179;1247;41391;-61
2022/09/25 09:20:56;;;;;;;6.40;1.60;;;;;28.60;97471.80;;;;111208;1247;41158;-62
2022/09/25 09:23:39;;;;;;;4.30;1.80;;;;;28.24;97476.80;;;;111239;1247;41242;-62
2022/09/25 09:26:48;;;;;;;5.20;1.60;;;;;28.58;97480.00;;;;111177;1247;41288;-62
2022/09/25 09:29:22;;;;;;;4.10;1.80;;;;;29.20;97471.20;;;;110890;1247;41299;-61
2022/09/25 09:32:31;;;;;;;4.00;1.60;;;;;29.78;97469.20;;;;111226;1247;41196;-61
2022/09/25 09:35:19;;;;;;;4.50;1.80;;;;;29.20;97464.40;;;;111145;1247;41178;-61
2022/09/25 09:38:18;;;;;;;3.10;1.60;;;;;28.80;97462.20;;;;111084;1249;41133;-61
2022/09/25 09:40:46;;;;;;;5.00;1.70;;;;;28.60;97458.80;;;;110854;1249;41140;-62
2022/09/25 09:43:39;;;;;;;3.30;1.60;;;;;28.20;97454.60;;;;111092;1248;41265;-62
2022/09/25 09:46:32;;;;;;;3.90;1.60;;;;;27.72;97452.80;;;;111002;1248;42973;-62
2022/09/25 09:49:15;;;;;;;2.70;1.50;;;;;28.36;97461.20;;;;111097;1249;43061;-62
2022/09/25 09:51:45;;;;;;;3.70;1.70;;;;;28.60;97464.20;;;;111037;1249;41527;-62
2022/09/25 09:54:20;;;;;;;2.30;1.50;;;;;28.70;97464.20;;;;111008;1247;41267;-61
2022/09/25 09:56:49;;;;;;;5.70;1.70;;;;;29.36;97472.80;;;;110834;1248;42634;-61
2022/09/25 09:59:45;;;;;;;3.20;1.70;;;;;29.74;97468.60;;;;110685;1249;41298;-61
2022/09/25 10:02:33;;;;;;;3.70;1.50;;;;;29.18;97461.60;;;;110786;1247;41120;-62
2022/09/25 10:05:05;;;;;;;4.50;1.60;;;;;28.38;97462.20;;;;111090;1247;41203;-62
2022/09/25 10:07:35;;;;;;;4.10;1.60;;;;;28.54;97462.00;;;;110956;1248;41130;-62
2022/09/25 10:10:13;;;;;;;1.50;1.40;;;;;28.78;97460.20;;;;111085;1247;41608;-61
2022/09/25 10:12:46;;;;;;;3.60;1.60;;;;;28.92;97452.00;;;;111038;1247;41193;-61
2022/09/25 10:15:23;;;;;;;3.30;1.50;;;;;29.54;97447.80;;;;111039;1249;42466;-61
2022/09/25 10:17:52;;;;;;;6.10;2.10;;;;;29.04;97449.40;;;;111061;1249;41282;-61
2022/09/25 10:20:22;;;;;;;3.20;1.60;;;;;29.64;97439.20;;;;111095;1247;41314;-61
2022/09/25 10:22:52;;;;;;;3.40;1.60;;;;;29.72;97440.60;;;;111035;1248;42396;-62
2022/09/25 10:25:35;;;;;;;2.30;1.40;;;;;29.46;97444.80;;;;111142;1247;41622;-62
2022/09/25 10:28:24;;;;;;;3.10;1.60;;;;;29.72;97447.20;;;;111209;1247;41900;-62
2022/09/25 10:30:52;;;;;;;2.30;1.40;;;;;30.56;97443.20;;;;111150;1247;41126;-62
2022/09/25 10:33:22;;;;;;;1.70;1.30;;;;;31.00;97442.80;;;;111221;1247;41553;-62
2022/09/25 10:35:53;;;;;;;4.40;1.60;;;;;31.64;97446.00;;;;111141;1247;41127;-62
2022/09/25 10:38:56;;;;;;;3.10;1.50;;;;;31.80;97443.20;;;;111091;1247;41146;-62
2022/09/25 10:41:43;;;;;;;2.40;1.40;;;;;32.10;97437.60;;;;110494;1256;41754;-62
2022/09/25 10:44:22;;;;;;;2.90;1.60;;;;;32.38;97439.20;;;;111085;1247;42189;-62
2022/09/25 10:52:48;;;;;;;1.90;1.20;;;;;31.38;97426.00;;;;111028;1247;42090;-62
2022/09/25 10:55:30;;;;;;;3.60;1.60;;;;;31.78;97424.20;;;;111139;1247;41266;-62
2022/09/25 10:58:09;;;;;;;4.10;1.60;;;;;32.52;97420.40;;;;111171;1247;41169;-62
2022/09/25 11:00:43;;;;;;;2.80;1.50;;;;;32.60;97416.00;;;;111153;1247;41731;-61
2022/09/25 11:03:19;;;;;;;3.30;1.50;;;;;32.14;97427.00;;;;111076;1249;42397;-61
2022/09/25 11:05:51;;;;;;;2.60;1.50;;;;;31.60;97433.40;;;;111109;1247;41172;-62
2022/09/25 11:08:22;;;;;;;2.00;1.30;;;;;31.20;97433.80;;;;110938;1247;41605;-62
2022/09/25 11:10:55;;;;;;;5.40;1.70;;;;;31.20;97434.20;;;;111158;1247;41269;-62
2022/09/25 11:13:24;;;;;;;4.30;1.30;;;;;31.20;97431.00;;;;111082;1247;41250;-62
2022/09/25 11:15:56;;;;;;;3.30;1.50;;;;;30.90;97425.60;;;;111075;1248;41154;-62
2022/09/25 11:18:39;;;;;;;3.60;1.40;;;;;30.04;97430.00;;;;111209;1247;41153;-62
2022/09/25 11:21:51;;;;;;;1.40;1.20;;;;;29.58;97428.00;;;;111184;1247;41159;-62
2022/09/25 11:24:21;;;;;;;5.00;1.60;;;;;29.60;97419.20;;;;110565;1254;41306;-63
2022/09/25 11:27:06;;;;;;;2.40;1.30;;;;;29.60;97420.20;;;;111046;1247;41146;-63
2022/09/25 11:29:53;;;;;;;3.80;1.50;;;;;29.76;97412.40;;;;111082;1247;41204;-63
2022/09/25 11:32:33;;;;;;;3.40;1.50;;;;;28.50;97415.80;;;;111184;1247;41139;-62
2022/09/25 11:35:16;;;;;;;2.80;1.50;;;;;28.10;97413.60;;;;111177;1247;41623;-61
2022/09/25 11:38:16;;;;;;;3.50;1.60;;;;;28.20;97411.80;;;;111279;1247;41462;-62
2022/09/25 11:41:17;;;;;;;4.90;1.70;;;;;27.82;97410.40;;;;111237;1247;42108;-62
2022/09/25 11:43:50;;;;;;;3.20;1.50;;;;;27.90;97401.60;;;;110970;1250;41983;-62
2022/09/25 11:47:00;;;;;;;6.60;1.70;;;;;28.34;97395.80;;;;111106;1247;41376;-62
2022/09/25 11:49:30;;;;;;;2.30;1.40;;;;;27.98;97392.40;;;;111165;1247;41154;-62
2022/09/25 11:52:21;;;;;;;3.00;1.40;;;;;27.88;97384.00;;;;110833;1247;41174;-62
2022/09/25 11:55:04;;;;;;;3.50;1.60;;;;;27.94;97387.20;;;;111187;1247;41205;-63
2022/09/25 11:57:56;;;;;;;4.60;1.60;;;;;27.54;97388.20;;;;111136;1247;41663;-63
2022/09/25 12:00:35;;;;;;;2.50;1.40;;;;;27.10;97380.20;;;;111134;1247;42486;-63
2022/09/25 12:03:08;;;;;;;2.50;1.40;;;;;26.64;97390.20;;;;111057;1247;41938;-63
2022/09/25 12:05:46;;;;;;;2.20;1.30;;;;;26.38;97390.40;;;;111050;1247;41176;-62
2022/09/25 12:09:01;;;;;;;3.10;1.50;;;;;26.44;97385.80;;;;111141;1247;41769;-63
2022/09/25 12:11:55;;;;;;;3.60;1.40;;;;;26.60;97384.80;;;;110610;1254;41156;-63
2022/09/25 12:14:35;;;;;;;3.00;1.50;;;;;26.68;97379.80;;;;110278;1254;41426;-63
2022/09/25 12:17:02;;;;;;;2.50;1.40;;;;;26.20;97381.60;;;;110874;1248;41974;-62
2022/09/25 12:19:43;;;;;;;3.90;1.40;;;;;26.20;97375.00;;;;111186;1247;41572;-61
2022/09/25 12:22:13;;;;;;;3.20;1.40;;;;;26.00;97372.60;;;;111003;1247;41761;-62
2022/09/25 12:25:25;;;;;;;2.20;1.30;;;;;26.00;97366.60;;;;111086;1248;41278;-61
2022/09/25 12:28:15;;;;;;;6.70;1.90;;;;;26.20;97363.40;;;;110448;1250;41208;-61
2022/09/25 12:30:55;;;;;;;2.60;1.50;;;;;26.10;97358.60;;;;110730;1250;41257;-62
2022/09/25 12:33:54;;;;;;;2.60;1.50;;;;;25.86;97357.60;;;;110699;1250;41139;-61
2022/09/25 12:36:35;;;;;;;2.50;1.50;;;;;25.90;97359.60;;;;111042;1247;41261;-62
2022/09/25 12:39:08;;;;;;;3.30;1.60;;;;;26.00;97358.60;;;;111060;1248;41715;-61
2022/09/25 12:41:45;;;;;;;4.10;1.70;;;;;25.60;97361.20;;;;111106;1248;41129;-61
2022/09/25 12:44:20;;;;;;;2.60;1.40;;;;;25.00;97357.40;;;;111134;1249;41591;-61
2022/09/25 12:46:56;;;;;;;3.30;1.60;;;;;25.00;97356.00;;;;111078;1248;41378;-61
2022/09/25 12:49:34;;;;;;;3.30;1.70;;;;;24.96;97353.60;;;;111144;1247;41391;-61
2022/09/25 12:52:11;;;;;;;3.30;1.50;;;;;24.60;97355.60;;;;111107;1247;41483;-61
2022/09/25 12:54:52;;;;;;;3.90;1.60;;;;;24.60;97353.40;;;;111070;1248;41197;-63
2022/09/25 12:57:40;;;;;;;3.10;1.60;;;;;24.60;97347.40;;;;110974;1248;41159;-62
2022/09/25 13:00:27;;;;;;;3.40;1.60;;;;;24.60;97350.40;;;;110951;1249;42552;-62
2022/09/25 13:03:04;;;;;;;4.50;1.80;;;;;24.66;97352.80;;;;111171;1247;41710;-62
2022/09/25 13:05:43;;;;;;;3.30;1.50;;;;;24.40;97344.60;;;;111073;1247;41712;-62
2022/09/25 13:08:40;;;;;;;3.70;1.50;;;;;24.30;97339.80;;;;110710;1249;42190;-62